Time;durP1;ratioP1;P1;durP2;ratioP2;P2;SDS_P1;SDS_P2;PMS_P1;PMS_P2;Temp;Humidity;BMP_temperature;BMP_pressure;BME280_temperature;BME280_humidity;BME280_pressure;Samples;Min_cycle;Max_cycle;Signal;HPM_P1;HPM_P2
2022/01/23 00:01:13;;;;;;;;;;;5.90;99.90;;;;;;5086912;28;19942;-73
2022/01/23 00:03:45;;;;;;;;;;;5.90;99.90;;;;;;5090588;28;19959;-73
2022/01/23 00:06:11;;;;;;;;;;;5.90;99.90;;;;;;5089949;28;19916;-73
2022/01/23 00:08:36;;;;;;;;;;;6.00;99.90;;;;;;5079597;28;19923;-73
2022/01/23 00:11:02;;;;;;;;;;;6.00;99.90;;;;;;5084158;28;19917;-73
2022/01/23 00:13:37;;;;;;;;;;;6.00;99.90;;;;;;5069104;28;19921;-73
2022/01/23 00:18:46;;;;;;;;;;;6.10;99.90;;;;;;5086008;28;19923;-73
2022/01/23 00:21:12;;;;;;;;;;;6.10;99.90;;;;;;5090340;28;19916;-74
2022/01/23 00:31:33;;;;;;;;;;;6.20;99.90;;;;;;5090535;28;19962;-73
2022/01/23 00:33:59;;;;;;;;;;;6.20;99.90;;;;;;5090957;28;20171;-73
2022/01/23 00:36:30;;;;;;;;;;;6.30;99.90;;;;;;5086861;28;20310;-73
2022/01/23 00:38:56;;;;;;;;;;;6.30;99.90;;;;;;5090007;28;19952;-73
2022/01/23 00:41:22;;;;;;;;;;;6.40;99.90;;;;;;5089292;28;19974;-73
2022/01/23 00:43:50;;;;;;;;;;;6.40;99.90;;;;;;5088475;28;19930;-72
2022/01/23 00:51:37;;;;;;;;;;;6.40;99.90;;;;;;5058993;28;19916;-73
2022/01/23 00:54:06;;;;;;;;;;;6.30;99.90;;;;;;5089459;28;19959;-73
2022/01/23 00:56:32;;;;;;;;;;;6.30;99.90;;;;;;5070881;28;19920;-73
2022/01/23 00:58:58;;;;;;;;;;;6.30;99.90;;;;;;5089246;28;19920;-73
2022/01/23 01:01:24;;;;;;;;;;;6.30;99.90;;;;;;5070493;28;19930;-73
2022/01/23 01:03:49;;;;;;;;;;;6.30;99.90;;;;;;5089401;28;20396;-73
2022/01/23 01:06:15;;;;;;;;;;;6.30;99.90;;;;;;5077312;28;19920;-73
2022/01/23 01:08:41;;;;;;;;;;;6.30;99.90;;;;;;5089353;28;20003;-73
2022/01/23 01:13:54;;;;;;;;;;;6.30;99.90;;;;;;5090889;28;20254;-73
2022/01/23 01:33:16;;;;;;;;;;;6.20;99.90;;;;;;5091496;28;20466;-73
2022/01/23 01:35:27;;;;;;;;;;;6.10;99.90;;;;;;5086400;28;20011;-73
2022/01/23 01:37:53;;;;;;;;;;;6.10;99.90;;;;;;5091233;28;20019;-74
2022/01/23 01:40:19;;;;;;;;;;;6.10;99.90;;;;;;5091889;28;19923;-74
2022/01/23 01:42:45;;;;;;;;;;;6.10;99.90;;;;;;5093503;28;19924;-73
2022/01/23 01:45:11;;;;;;;;;;;6.00;99.90;;;;;;5090370;28;20226;-73
2022/01/23 01:47:37;;;;;;;;;;;6.20;99.90;;;;;;5075599;28;19920;-73
2022/01/23 01:50:03;;;;;;;;;;;6.20;99.90;;;;;;5092017;28;20391;-74
2022/01/23 01:52:29;;;;;;;;;;;6.20;99.90;;;;;;5090602;28;19969;-73
2022/01/23 01:55:01;;;;;;;;;;;6.10;99.90;;;;;;5089914;28;19920;-74
2022/01/23 01:57:38;;;;;;;;;;;6.00;99.90;;;;;;5092833;28;19912;-74
2022/01/23 02:02:47;;;;;;;;;;;5.80;99.90;;;;;;5093322;28;19950;-74
2022/01/23 02:08:31;;;;;;;;;;;5.80;99.90;;;;;;5095811;28;20234;-74
2022/01/23 02:10:53;;;;;;;;;;;5.70;99.90;;;;;;5091153;28;19927;-74
2022/01/23 02:13:25;;;;;;;;;;;5.70;99.90;;;;;;5095294;28;19924;-74
2022/01/23 02:51:39;;;;;;;;;;;5.70;99.90;;;;;;5078103;28;20017;-75
2022/01/23 02:56:52;;;;;;;;;;;5.70;99.90;;;;;;5096719;28;20006;-75
2022/01/23 02:59:24;;;;;;;;;;;5.70;99.90;;;;;;5079495;28;19912;-75
2022/01/23 03:04:39;;;;;;;;;;;5.60;99.90;;;;;;5097933;28;19957;-75
2022/01/23 03:32:46;;;;;;;;;;;5.50;99.90;;;;;;5096483;28;20306;-75
2022/01/23 03:35:12;;;;;;;;;;;5.50;99.90;;;;;;5078123;28;20015;-75
2022/01/23 03:37:37;;;;;;;;;;;5.50;99.90;;;;;;5097074;28;19992;-75
2022/01/23 03:40:03;;;;;;;;;;;5.60;99.90;;;;;;5097321;28;19908;-75
2022/01/23 03:42:31;;;;;;;;;;;5.50;99.90;;;;;;5097050;28;19945;-75
2022/01/23 03:47:52;;;;;;;;;;;5.50;99.90;;;;;;5096830;28;19919;-75
2022/01/23 03:50:18;;;;;;;;;;;5.40;99.90;;;;;;5096836;28;19908;-75
2022/01/23 03:52:43;;;;;;;;;;;5.40;99.90;;;;;;5096558;28;19908;-75
2022/01/23 03:55:09;;;;;;;;;;;5.50;99.90;;;;;;5078445;28;19916;-75
2022/01/23 03:57:34;;;;;;;;;;;5.40;99.90;;;;;;5092196;28;20261;-75
2022/01/23 04:00:00;;;;;;;;;;;5.40;99.90;;;;;;5096040;28;19952;-75
2022/01/23 04:02:26;;;;;;;;;;;5.50;99.90;;;;;;5078540;28;19916;-75
2022/01/23 04:04:51;;;;;;;;;;;5.40;99.90;;;;;;5096140;28;20349;-75
2022/01/23 04:07:23;;;;;;;;;;;5.50;99.90;;;;;;5095170;28;19957;-75
2022/01/23 04:09:49;;;;;;;;;;;5.50;99.90;;;;;;5096495;28;19918;-75
2022/01/23 04:15:10;;;;;;;;;;;5.50;99.90;;;;;;5096039;28;19957;-75
2022/01/23 04:47:56;;;;;;;;;;;5.20;99.90;;;;;;5095096;28;19923;-75
2022/01/23 05:00:51;;;;;;;;;;;5.40;99.90;;;;;;5089358;28;19919;-75
2022/01/23 05:05:47;;;;;;;;;;;5.40;99.90;;;;;;5095010;28;19916;-75
2022/01/23 05:08:17;;;;;;;;;;;5.40;99.90;;;;;;5093977;28;20325;-75
2022/01/23 05:10:43;;;;;;;;;;;5.50;99.90;;;;;;5086942;28;19965;-75
2022/01/23 05:13:09;;;;;;;;;;;5.50;99.90;;;;;;5091662;28;19924;-75
2022/01/23 05:15:35;;;;;;;;;;;5.50;99.90;;;;;;5074155;28;19919;-75
2022/01/23 05:18:01;;;;;;;;;;;5.50;99.90;;;;;;5090703;28;19912;-75
2022/01/23 05:20:28;;;;;;;;;;;5.40;99.90;;;;;;5076900;28;19912;-75
2022/01/23 05:23:00;;;;;;;;;;;5.40;99.90;;;;;;5094573;28;20050;-76
2022/01/23 05:25:29;;;;;;;;;;;5.30;99.90;;;;;;5092674;28;19968;-75
2022/01/23 05:27:54;;;;;;;;;;;5.30;99.90;;;;;;5090769;28;19916;-75
2022/01/23 05:30:21;;;;;;;;;;;5.30;99.90;;;;;;5093245;28;19919;-75
2022/01/23 05:32:47;;;;;;;;;;;5.30;99.90;;;;;;5092588;28;19928;-76
2022/01/23 05:35:13;;;;;;;;;;;5.30;99.90;;;;;;5094196;28;19927;-75
2022/01/23 05:37:39;;;;;;;;;;;5.20;99.90;;;;;;5097838;28;19927;-75
2022/01/23 05:40:06;;;;;;;;;;;5.20;99.90;;;;;;5098251;28;19951;-75
2022/01/23 05:42:32;;;;;;;;;;;5.10;99.90;;;;;;5079292;28;19921;-75
2022/01/23 05:44:57;;;;;;;;;;;5.20;99.90;;;;;;5098417;28;19920;-75
2022/01/23 05:47:23;;;;;;;;;;;5.30;99.90;;;;;;5098073;28;19919;-75
2022/01/23 05:49:49;;;;;;;;;;;5.30;99.90;;;;;;5098017;28;19921;-75
2022/01/23 05:52:15;;;;;;;;;;;5.20;99.90;;;;;;5097848;28;19916;-75
2022/01/23 05:54:41;;;;;;;;;;;5.20;99.90;;;;;;5097316;28;20323;-76
2022/01/23 05:57:06;;;;;;;;;;;5.20;99.90;;;;;;5097773;28;19920;-75
2022/01/23 05:59:32;;;;;;;;;;;5.20;99.90;;;;;;5097318;28;19913;-75
2022/01/23 06:01:57;;;;;;;;;;;5.20;99.90;;;;;;5097371;28;20257;-75
2022/01/23 06:04:26;;;;;;;;;;;5.20;99.90;;;;;;5097650;28;20006;-75
2022/01/23 06:06:55;;;;;;;;;;;5.20;99.90;;;;;;5097092;28;19923;-76
2022/01/23 06:09:22;;;;;;;;;;;5.20;99.90;;;;;;5097666;28;19919;-75
2022/01/23 06:11:47;;;;;;;;;;;5.30;99.90;;;;;;5096868;28;20037;-75
2022/01/23 06:14:13;;;;;;;;;;;5.30;99.90;;;;;;5078813;28;20010;-75
2022/01/23 06:16:39;;;;;;;;;;;5.30;99.90;;;;;;5097076;28;19946;-75
2022/01/23 06:19:05;;;;;;;;;;;5.30;99.90;;;;;;5097423;28;19931;-75
2022/01/23 06:21:30;;;;;;;;;;;5.30;99.90;;;;;;5097056;28;19924;-75
2022/01/23 06:24:06;;;;;;;;;;;5.20;99.90;;;;;;5096879;28;20015;-75
2022/01/23 06:26:43;;;;;;;;;;;5.20;99.90;;;;;;5097054;28;20303;-75
2022/01/23 06:29:09;;;;;;;;;;;5.20;99.90;;;;;;5096140;28;19920;-75
2022/01/23 06:31:34;;;;;;;;;;;5.20;99.90;;;;;;5096246;28;19927;-75
2022/01/23 06:34:00;;;;;;;;;;;5.20;99.90;;;;;;5096926;28;19916;-76
2022/01/23 06:36:26;;;;;;;;;;;5.30;99.90;;;;;;5081397;28;19923;-75
2022/01/23 06:38:51;;;;;;;;;;;5.30;99.90;;;;;;5095613;28;19983;-75
2022/01/23 06:41:17;;;;;;;;;;;5.30;99.90;;;;;;5088606;28;19918;-75
2022/01/23 06:43:42;;;;;;;;;;;5.20;99.90;;;;;;5098429;28;19916;-75
2022/01/23 06:46:08;;;;;;;;;;;5.20;99.90;;;;;;5096177;28;19916;-76
2022/01/23 06:48:33;;;;;;;;;;;5.20;99.90;;;;;;5089953;28;19912;-75
2022/01/23 06:50:59;;;;;;;;;;;5.20;99.90;;;;;;5096994;28;20330;-75
2022/01/23 06:53:24;;;;;;;;;;;5.30;99.90;;;;;;5097032;28;19973;-75
2022/01/23 06:55:50;;;;;;;;;;;5.30;99.90;;;;;;5096316;28;19937;-75
2022/01/23 06:58:16;;;;;;;;;;;5.20;99.90;;;;;;5096293;28;19922;-75
2022/01/23 07:00:41;;;;;;;;;;;5.30;99.90;;;;;;5099273;28;19912;-75
2022/01/23 07:03:07;;;;;;;;;;;5.20;99.90;;;;;;5093598;28;19923;-75
2022/01/23 07:05:32;;;;;;;;;;;5.20;99.90;;;;;;5096065;28;19912;-75
2022/01/23 07:07:58;;;;;;;;;;;5.20;99.90;;;;;;5096638;28;20176;-75
2022/01/23 07:10:24;;;;;;;;;;;5.30;99.90;;;;;;5094966;28;19916;-75
2022/01/23 07:12:50;;;;;;;;;;;5.30;99.90;;;;;;5095054;28;19924;-75
2022/01/23 07:15:16;;;;;;;;;;;5.20;99.90;;;;;;5096247;28;20454;-75
2022/01/23 07:17:42;;;;;;;;;;;5.30;99.90;;;;;;5096154;28;20389;-75
2022/01/23 07:20:08;;;;;;;;;;;5.30;99.90;;;;;;5087736;28;20287;-76
2022/01/23 07:22:34;;;;;;;;;;;5.30;99.90;;;;;;5095346;28;19962;-75
2022/01/23 07:25:02;;;;;;;;;;;5.30;99.90;;;;;;5077207;28;19912;-76
2022/01/23 07:27:32;;;;;;;;;;;5.30;99.90;;;;;;5096133;28;20188;-76
2022/01/23 07:29:57;;;;;;;;;;;5.30;99.90;;;;;;5096306;28;19998;-76
2022/01/23 07:32:23;;;;;;;;;;;5.30;99.90;;;;;;5096027;28;20054;-76
2022/01/23 07:34:48;;;;;;;;;;;5.30;99.90;;;;;;5090277;28;19968;-77
2022/01/23 07:37:15;;;;;;;;;;;5.30;99.90;;;;;;5095873;28;19969;-76
2022/01/23 07:39:40;;;;;;;;;;;5.30;99.90;;;;;;5094564;28;19912;-76
2022/01/23 07:42:06;;;;;;;;;;;5.30;99.90;;;;;;5095581;28;20330;-76
2022/01/23 07:44:32;;;;;;;;;;;5.30;99.90;;;;;;5095479;28;19966;-76
2022/01/23 07:46:57;;;;;;;;;;;5.30;99.90;;;;;;5095778;28;20005;-76
2022/01/23 07:49:23;;;;;;;;;;;5.30;99.90;;;;;;5095667;28;19912;-76
2022/01/23 07:51:49;;;;;;;;;;;5.30;99.90;;;;;;5088745;28;19916;-76
2022/01/23 07:54:14;;;;;;;;;;;5.30;99.90;;;;;;5089372;28;19939;-76
2022/01/23 07:56:42;;;;;;;;;;;5.30;99.90;;;;;;5090410;28;19919;-76
2022/01/23 07:59:10;;;;;;;;;;;5.40;99.90;;;;;;5094543;28;19916;-75
2022/01/23 08:01:39;;;;;;;;;;;5.40;99.90;;;;;;5092183;28;19923;-76
2022/01/23 08:04:05;;;;;;;;;;;5.40;99.90;;;;;;5076925;28;19920;-75
2022/01/23 08:06:33;;;;;;;;;;;5.40;99.90;;;;;;5094723;28;19927;-76
2022/01/23 08:08:58;;;;;;;;;;;5.40;99.90;;;;;;5095263;28;19950;-76
2022/01/23 08:11:24;;;;;;;;;;;5.40;99.90;;;;;;5094728;28;19952;-76
2022/01/23 08:13:50;;;;;;;;;;;5.40;99.90;;;;;;5095031;28;20219;-76
2022/01/23 08:16:15;;;;;;;;;;;5.40;99.90;;;;;;5094607;28;19912;-75
2022/01/23 08:18:41;;;;;;;;;;;5.40;99.90;;;;;;5094142;28;19981;-75
2022/01/23 08:21:07;;;;;;;;;;;5.40;99.90;;;;;;5076791;28;19912;-75
2022/01/23 08:23:33;;;;;;;;;;;5.40;99.90;;;;;;5094369;28;19931;-75
2022/01/23 08:25:59;;;;;;;;;;;5.40;99.90;;;;;;5079899;28;20234;-75
2022/01/23 08:28:24;;;;;;;;;;;5.40;99.90;;;;;;5091157;28;19916;-76
2022/01/23 08:30:50;;;;;;;;;;;5.50;99.90;;;;;;5074449;28;19950;-75
2022/01/23 08:33:15;;;;;;;;;;;5.50;99.90;;;;;;5093342;28;19920;-75
2022/01/23 08:35:43;;;;;;;;;;;5.50;99.90;;;;;;5093645;28;19912;-76
2022/01/23 08:38:09;;;;;;;;;;;5.60;99.90;;;;;;5093792;28;19920;-76
2022/01/23 08:43:21;;;;;;;;;;;5.60;99.90;;;;;;5055993;28;19923;-76
2022/01/23 08:45:46;;;;;;;;;;;5.60;99.90;;;;;;5093148;28;19912;-76
2022/01/23 08:48:12;;;;;;;;;;;5.60;99.90;;;;;;5092868;28;19912;-76
2022/01/23 08:50:38;;;;;;;;;;;5.60;99.90;;;;;;5093925;28;19958;-77
2022/01/23 08:53:03;;;;;;;;;;;5.70;99.90;;;;;;5093471;28;20246;-75
2022/01/23 08:55:29;;;;;;;;;;;5.70;99.90;;;;;;5093863;28;19962;-75
2022/01/23 08:57:54;;;;;;;;;;;5.70;99.90;;;;;;5090780;28;19969;-76
2022/01/23 09:00:21;;;;;;;;;;;5.70;99.90;;;;;;5093714;28;20561;-76
2022/01/23 09:02:46;;;;;;;;;;;5.80;99.90;;;;;;5099328;28;20307;-76
2022/01/23 09:05:12;;;;;;;;;;;5.80;99.90;;;;;;5093257;28;19920;-76
2022/01/23 09:07:37;;;;;;;;;;;5.80;99.90;;;;;;5100411;28;19961;-76
2022/01/23 09:10:04;;;;;;;;;;;5.80;99.90;;;;;;5100503;28;20222;-76
2022/01/23 09:15:05;;;;;;;;;;;5.80;99.90;;;;;;5093205;28;19998;-75
2022/01/23 09:17:31;;;;;;;;;;;5.90;99.90;;;;;;5071676;28;19924;-76
2022/01/23 09:19:57;;;;;;;;;;;5.90;99.90;;;;;;5093297;28;19957;-76
2022/01/23 09:22:22;;;;;;;;;;;5.90;99.90;;;;;;5093354;28;19923;-75
2022/01/23 09:24:47;;;;;;;;;;;5.90;99.90;;;;;;5092719;28;19912;-76
2022/01/23 09:27:18;;;;;;;;;;;5.90;99.90;;;;;;5092864;28;19920;-76
2022/01/23 09:29:47;;;;;;;;;;;6.00;99.90;;;;;;5093850;28;19916;-75
2022/01/23 09:32:14;;;;;;;;;;;6.00;99.90;;;;;;5075506;28;19924;-76
2022/01/23 09:34:41;;;;;;;;;;;6.00;99.90;;;;;;5093432;28;19927;-76
2022/01/23 09:37:08;;;;;;;;;;;6.00;99.90;;;;;;5095848;28;19916;-76
2022/01/23 09:39:33;;;;;;;;;;;6.10;99.90;;;;;;5076777;28;19912;-76
2022/01/23 09:42:01;;;;;;;;;;;6.10;99.90;;;;;;5093553;28;20227;-76
2022/01/23 09:44:29;;;;;;;;;;;6.10;99.90;;;;;;5094509;28;19962;-76
2022/01/23 09:46:55;;;;;;;;;;;6.10;99.90;;;;;;5094281;28;19916;-76
2022/01/23 09:49:22;;;;;;;;;;;6.10;99.90;;;;;;5093411;28;19916;-76
2022/01/23 09:51:49;;;;;;;;;;;6.10;99.90;;;;;;5094331;28;20311;-76
2022/01/23 09:54:15;;;;;;;;;;;6.10;99.90;;;;;;5076162;28;20211;-76
2022/01/23 09:56:42;;;;;;;;;;;6.20;99.90;;;;;;5092681;28;20003;-76
2022/01/23 09:59:15;;;;;;;;;;;6.20;99.90;;;;;;5093754;28;19916;-76
2022/01/23 10:01:41;;;;;;;;;;;6.30;99.90;;;;;;5093640;28;19951;-76
2022/01/23 10:04:07;;;;;;;;;;;6.30;99.90;;;;;;5094473;28;20042;-76
2022/01/23 10:06:32;;;;;;;;;;;6.30;99.90;;;;;;5093844;28;19994;-76
2022/01/23 10:08:59;;;;;;;;;;;6.30;99.90;;;;;;5097429;28;19919;-76
2022/01/23 10:11:25;;;;;;;;;;;6.30;99.90;;;;;;5080069;28;19916;-76
2022/01/23 10:13:51;;;;;;;;;;;6.40;99.90;;;;;;5075979;28;19942;-76
2022/01/23 10:16:17;;;;;;;;;;;6.40;99.90;;;;;;5077925;28;20299;-76
2022/01/23 10:18:42;;;;;;;;;;;6.50;99.90;;;;;;5094391;28;20015;-76
2022/01/23 10:21:08;;;;;;;;;;;6.50;99.90;;;;;;5091074;28;20219;-76
2022/01/23 10:23:34;;;;;;;;;;;6.50;99.90;;;;;;5090239;28;19927;-76
2022/01/23 10:26:01;;;;;;;;;;;6.50;99.90;;;;;;5096232;28;20211;-76
2022/01/23 10:28:29;;;;;;;;;;;6.50;99.90;;;;;;5079059;28;20014;-76
2022/01/23 10:30:57;;;;;;;;;;;6.60;99.90;;;;;;5097409;28;19965;-76
2022/01/23 10:33:32;;;;;;;;;;;6.60;99.90;;;;;;5092753;28;19920;-76
2022/01/23 10:35:57;;;;;;;;;;;6.60;99.90;;;;;;5095800;28;19990;-76
2022/01/23 10:38:24;;;;;;;;;;;6.60;99.90;;;;;;5095440;28;20366;-76
2022/01/23 10:41:03;;;;;;;;;;;6.60;99.90;;;;;;5096293;28;19920;-76
2022/01/23 10:48:58;;;;;;;;;;;6.70;99.90;;;;;;5087352;28;19939;-76
2022/01/23 10:51:24;;;;;;;;;;;6.70;99.90;;;;;;5095362;28;20011;-76
2022/01/23 10:54:09;;;;;;;;;;;6.70;99.90;;;;;;5077796;28;19995;-76
2022/01/23 10:56:39;;;;;;;;;;;6.70;99.90;;;;;;5094715;28;19916;-76
2022/01/23 10:59:07;;;;;;;;;;;6.70;99.90;;;;;;5073763;28;19912;-79
2022/01/23 11:01:33;;;;;;;;;;;6.70;99.90;;;;;;5087945;28;19912;-77
2022/01/23 11:04:07;;;;;;;;;;;6.80;99.90;;;;;;5096538;28;19918;-76
2022/01/23 11:06:34;;;;;;;;;;;6.80;99.90;;;;;;5094163;28;19916;-76
2022/01/23 11:09:07;;;;;;;;;;;6.80;99.90;;;;;;5095922;28;19908;-76
2022/01/23 11:11:40;;;;;;;;;;;6.80;99.90;;;;;;5093481;28;19923;-76
2022/01/23 11:19:43;;;;;;;;;;;6.90;99.90;;;;;;5096013;28;19919;-76
2022/01/23 11:22:36;;;;;;;;;;;6.90;99.90;;;;;;5077274;28;19959;-77
2022/01/23 11:25:04;;;;;;;;;;;6.90;99.90;;;;;;5094295;28;19920;-77
2022/01/23 11:27:30;;;;;;;;;;;7.00;99.90;;;;;;5095194;28;19959;-76
2022/01/23 11:30:02;;;;;;;;;;;7.00;99.90;;;;;;5074511;28;19916;-76
2022/01/23 11:32:34;;;;;;;;;;;7.00;99.90;;;;;;5094263;28;20014;-77
2022/01/23 11:35:08;;;;;;;;;;;7.00;99.90;;;;;;5095223;28;19923;-76
2022/01/23 11:37:35;;;;;;;;;;;7.00;99.90;;;;;;5079204;28;20192;-76
2022/01/23 11:40:08;;;;;;;;;;;7.10;99.90;;;;;;5096014;28;19912;-76
2022/01/23 11:51:05;;;;;;;;;;;7.10;99.90;;;;;;5095178;28;19996;-76
2022/01/23 11:53:52;;;;;;;;;;;7.20;99.90;;;;;;5094651;28;19916;-77
2022/01/23 11:59:11;;;;;;;;;;;7.20;99.90;;;;;;5095713;28;20188;-77
2022/01/23 12:01:39;;;;;;;;;;;7.20;99.90;;;;;;5094788;28;19912;-76
2022/01/23 12:04:08;;;;;;;;;;;7.30;99.90;;;;;;5076931;28;20257;-76
2022/01/23 12:06:34;;;;;;;;;;;7.30;99.90;;;;;;5094933;28;19981;-76
2022/01/23 12:09:09;;;;;;;;;;;7.30;99.90;;;;;;5077504;28;19939;-76
2022/01/23 12:11:39;;;;;;;;;;;7.30;99.90;;;;;;5095065;28;19916;-76
2022/01/23 12:16:20;;;;;;;;;;;7.30;99.90;;;;;;5094573;28;19916;-77
2022/01/23 12:16:59;;;;;;;;;;;7.30;99.90;;;;;;5095539;28;19920;-76
2022/01/23 12:19:25;;;;;;;;;;;7.40;99.90;;;;;;5093188;28;19916;-77
2022/01/23 12:21:55;;;;;;;;;;;7.30;99.90;;;;;;5094902;28;19923;-76
2022/01/23 12:24:22;;;;;;;;;;;7.30;99.90;;;;;;5094910;28;19920;-76
2022/01/23 12:26:48;;;;;;;;;;;7.30;99.90;;;;;;5094981;28;19938;-76
2022/01/23 12:29:15;;;;;;;;;;;7.40;99.90;;;;;;5060692;28;19920;-76
2022/01/23 12:31:41;;;;;;;;;;;7.30;99.90;;;;;;5084803;28;19994;-77
2022/01/23 12:34:07;;;;;;;;;;;7.40;99.90;;;;;;5093922;28;19916;-77
2022/01/23 12:36:34;;;;;;;;;;;7.40;99.90;;;;;;5093238;28;20011;-77
2022/01/23 12:39:08;;;;;;;;;;;7.40;99.90;;;;;;5090049;28;19920;-77
2022/01/23 12:41:38;;;;;;;;;;;7.40;99.90;;;;;;5076353;28;19942;-78
2022/01/23 12:44:06;;;;;;;;;;;7.40;99.90;;;;;;5076193;28;19919;-77
2022/01/23 12:46:31;;;;;;;;;;;7.40;99.90;;;;;;5076017;28;20269;-77
2022/01/23 12:48:59;;;;;;;;;;;7.40;99.90;;;;;;5076707;28;19965;-76
2022/01/23 12:51:29;;;;;;;;;;;7.40;99.90;;;;;;5094451;28;20061;-77
2022/01/23 12:53:55;;;;;;;;;;;7.40;99.90;;;;;;5093685;28;19924;-77
2022/01/23 12:56:22;;;;;;;;;;;7.40;99.90;;;;;;5092779;28;19920;-77
2022/01/23 12:58:52;;;;;;;;;;;7.40;99.90;;;;;;5072302;28;20223;-77
2022/01/23 13:01:18;;;;;;;;;;;7.30;99.90;;;;;;5088836;28;19927;-76
2022/01/23 13:03:51;;;;;;;;;;;7.40;99.90;;;;;;5092137;28;19927;-77
2022/01/23 13:06:17;;;;;;;;;;;7.30;99.90;;;;;;5092462;28;20049;-77
2022/01/23 13:08:50;;;;;;;;;;;7.30;99.90;;;;;;5086390;28;20011;-77
2022/01/23 13:14:00;;;;;;;;;;;7.30;99.90;;;;;;5092508;28;19912;-76
2022/01/23 13:16:47;;;;;;;;;;;7.30;99.90;;;;;;5084126;28;19916;-77
2022/01/23 13:19:24;;;;;;;;;;;7.30;99.90;;;;;;5092772;28;19912;-77
2022/01/23 13:26:28;;;;;;;;;;;7.30;99.90;;;;;;5093603;28;19986;-76
2022/01/23 13:30:34;;;;;;;;;;;7.30;99.90;;;;;;5093773;28;19973;-77
2022/01/23 13:33:10;;;;;;;;;;;7.30;99.90;;;;;;4970260;28;2814775;-77
2022/01/23 13:35:39;;;;;;;;;;;7.40;99.90;;;;;;5064591;28;20562;-77
2022/01/23 13:38:10;;;;;;;;;;;7.30;99.90;;;;;;5045289;28;19912;-78
2022/01/23 13:40:40;;;;;;;;;;;7.40;99.90;;;;;;5054225;28;19913;-77
2022/01/23 13:51:37;;;;;;;;;;;7.30;99.90;;;;;;5033033;28;19913;-77
2022/01/23 13:59:34;;;;;;;;;;;7.20;99.90;;;;;;5058349;28;19970;-77
2022/01/23 14:04:30;;;;;;;;;;;7.20;99.90;;;;;;5058500;28;19913;-77
2022/01/23 14:06:56;;;;;;;;;;;7.20;99.90;;;;;;5050131;28;19912;-77
2022/01/23 14:09:23;;;;;;;;;;;7.20;99.90;;;;;;5058174;28;19924;-77
2022/01/23 14:11:49;;;;;;;;;;;7.20;99.90;;;;;;5053539;28;20212;-77
2022/01/23 14:14:15;;;;;;;;;;;7.20;99.90;;;;;;5048579;28;19963;-77
2022/01/23 14:16:41;;;;;;;;;;;7.20;99.90;;;;;;5073047;28;19999;-77
2022/01/23 14:19:21;;;;;;;;;;;7.20;99.90;;;;;;5058224;28;19923;-77
2022/01/23 14:21:49;;;;;;;;;;;7.20;99.90;;;;;;5058127;28;20287;-77
2022/01/23 14:24:22;;;;;;;;;;;7.20;99.90;;;;;;5057161;28;19917;-77
2022/01/23 14:27:02;;;;;;;;;;;7.20;99.90;;;;;;5057368;28;19919;-77
2022/01/23 14:29:31;;;;;;;;;;;7.20;99.90;;;;;;5057727;28;20283;-78
2022/01/23 14:32:04;;;;;;;;;;;7.20;99.90;;;;;;5059910;28;19920;-77
2022/01/23 14:34:30;;;;;;;;;;;7.20;99.90;;;;;;5079921;28;20310;-77
2022/01/23 14:36:56;;;;;;;;;;;7.20;99.90;;;;;;5097828;28;19912;-77
2022/01/23 14:39:23;;;;;;;;;;;7.20;99.90;;;;;;5080050;28;19962;-76
2022/01/23 14:41:49;;;;;;;;;;;7.20;99.90;;;;;;5097032;28;19913;-77
2022/01/23 14:44:16;;;;;;;;;;;7.20;99.90;;;;;;5096371;28;19945;-77
2022/01/23 14:46:44;;;;;;;;;;;7.20;99.90;;;;;;5097531;28;19991;-77
2022/01/23 14:49:11;;;;;;;;;;;7.20;99.90;;;;;;5095928;28;20018;-77
2022/01/23 14:51:37;;;;;;;;;;;7.20;99.90;;;;;;5088050;28;20219;-77
2022/01/23 14:54:03;;;;;;;;;;;7.20;99.90;;;;;;5096190;28;19999;-77
2022/01/23 14:56:31;;;;;;;;;;;7.10;99.90;;;;;;5078724;28;20237;-77
2022/01/23 14:58:57;;;;;;;;;;;7.20;99.90;;;;;;5096540;28;20311;-76
2022/01/23 15:01:22;;;;;;;;;;;7.20;99.90;;;;;;5078982;28;19918;-77
2022/01/23 15:03:52;;;;;;;;;;;7.20;99.90;;;;;;5095176;28;20246;-76
2022/01/23 15:06:18;;;;;;;;;;;7.20;99.90;;;;;;5088146;28;19921;-76
2022/01/23 15:08:46;;;;;;;;;;;7.20;99.90;;;;;;5073045;28;19992;-76
2022/01/23 15:11:12;;;;;;;;;;;7.20;99.90;;;;;;5077090;28;19912;-77
2022/01/23 15:13:38;;;;;;;;;;;7.20;99.90;;;;;;5079219;28;20221;-76
2022/01/23 15:16:04;;;;;;;;;;;7.10;99.90;;;;;;5078784;28;19916;-77
2022/01/23 15:18:29;;;;;;;;;;;7.10;99.90;;;;;;5097421;28;20057;-77
2022/01/23 15:20:55;;;;;;;;;;;7.10;99.90;;;;;;5095842;28;19916;-76
2022/01/23 15:23:20;;;;;;;;;;;7.10;99.90;;;;;;5096975;28;19919;-76
2022/01/23 15:25:47;;;;;;;;;;;7.10;99.90;;;;;;5096968;28;19970;-77
2022/01/23 15:28:13;;;;;;;;;;;7.10;99.90;;;;;;5096934;28;19972;-77
2022/01/23 15:30:39;;;;;;;;;;;7.10;99.90;;;;;;5096943;28;19920;-77
2022/01/23 15:33:06;;;;;;;;;;;7.00;99.90;;;;;;5086462;28;19987;-76
2022/01/23 15:35:32;;;;;;;;;;;7.00;99.90;;;;;;5066876;28;20014;-76
2022/01/23 15:37:58;;;;;;;;;;;7.00;99.90;;;;;;5056652;28;19956;-77
2022/01/23 15:40:24;;;;;;;;;;;6.90;99.90;;;;;;5060644;28;20379;-76
2022/01/23 15:42:51;;;;;;;;;;;6.90;99.90;;;;;;5058628;28;19932;-76
2022/01/23 15:45:18;;;;;;;;;;;7.00;99.90;;;;;;5056635;28;19960;-76
2022/01/23 15:47:44;;;;;;;;;;;6.90;99.90;;;;;;5048500;28;19928;-76
2022/01/23 15:50:10;;;;;;;;;;;6.90;99.90;;;;;;5055402;28;19943;-76
2022/01/23 15:52:37;;;;;;;;;;;6.90;99.90;;;;;;5072745;28;19920;-77
2022/01/23 15:55:03;;;;;;;;;;;6.90;99.90;;;;;;5050147;28;19912;-76
2022/01/23 15:57:29;;;;;;;;;;;6.90;99.90;;;;;;5057578;28;20489;-76
2022/01/23 15:59:54;;;;;;;;;;;6.80;99.90;;;;;;5054809;28;19917;-76
2022/01/23 16:02:20;;;;;;;;;;;6.80;99.90;;;;;;5055855;28;19924;-76
2022/01/23 16:04:45;;;;;;;;;;;6.70;99.90;;;;;;5056174;28;19991;-77
2022/01/23 16:07:16;;;;;;;;;;;6.70;99.90;;;;;;5070123;28;20312;-77
2022/01/23 16:09:42;;;;;;;;;;;6.70;99.90;;;;;;5054841;28;20358;-78
2022/01/23 16:12:08;;;;;;;;;;;6.60;99.90;;;;;;5055428;28;20281;-76
2022/01/23 16:14:33;;;;;;;;;;;6.60;99.90;;;;;;5056348;28;19996;-77
2022/01/23 16:16:59;;;;;;;;;;;6.60;99.90;;;;;;5055679;28;19955;-77
2022/01/23 16:19:24;;;;;;;;;;;6.60;99.90;;;;;;5054988;28;20228;-77
2022/01/23 16:21:54;;;;;;;;;;;6.60;99.90;;;;;;5054600;28;19979;-77
2022/01/23 16:24:21;;;;;;;;;;;6.50;99.90;;;;;;5056827;28;19966;-77
2022/01/23 16:26:48;;;;;;;;;;;6.50;99.90;;;;;;5060641;28;19912;-77
2022/01/23 16:29:14;;;;;;;;;;;6.50;99.90;;;;;;5057370;28;19965;-76
2022/01/23 16:31:39;;;;;;;;;;;6.50;99.90;;;;;;5061277;28;20082;-77
2022/01/23 16:34:05;;;;;;;;;;;6.60;99.90;;;;;;5095705;28;20633;-77
2022/01/23 16:36:32;;;;;;;;;;;6.50;99.90;;;;;;5095391;28;20327;-76
2022/01/23 16:38:58;;;;;;;;;;;6.50;99.90;;;;;;5076923;28;19913;-77
2022/01/23 16:41:24;;;;;;;;;;;6.50;99.90;;;;;;5094509;28;19927;-77
2022/01/23 16:43:49;;;;;;;;;;;6.50;99.90;;;;;;5095220;28;19924;-77
2022/01/23 16:46:16;;;;;;;;;;;6.50;99.90;;;;;;5094172;28;19920;-77
2022/01/23 16:48:41;;;;;;;;;;;6.50;99.90;;;;;;5077143;28;19970;-77
2022/01/23 16:51:07;;;;;;;;;;;6.50;99.90;;;;;;5077564;28;19997;-77
2022/01/23 16:53:33;;;;;;;;;;;6.50;99.90;;;;;;5094656;28;20329;-77
2022/01/23 16:55:58;;;;;;;;;;;6.40;99.90;;;;;;5094908;28;19912;-77
2022/01/23 16:58:25;;;;;;;;;;;6.40;99.90;;;;;;5095218;28;19916;-77
2022/01/23 17:00:51;;;;;;;;;;;6.40;99.90;;;;;;5095035;28;19912;-77
2022/01/23 17:03:17;;;;;;;;;;;6.40;99.90;;;;;;5077026;28;19935;-77
2022/01/23 17:05:45;;;;;;;;;;;6.30;99.90;;;;;;5094033;28;19912;-76
2022/01/23 17:08:11;;;;;;;;;;;6.30;99.90;;;;;;5091783;28;20345;-76
2022/01/23 17:10:37;;;;;;;;;;;6.30;99.90;;;;;;5076713;28;19919;-77
2022/01/23 17:13:02;;;;;;;;;;;6.40;99.90;;;;;;5094979;28;19912;-76
2022/01/23 17:15:28;;;;;;;;;;;6.40;99.90;;;;;;5094911;28;19912;-76
2022/01/23 17:17:53;;;;;;;;;;;6.40;99.90;;;;;;5077181;28;19922;-76
2022/01/23 17:20:20;;;;;;;;;;;6.40;99.90;;;;;;5094643;28;20223;-76
2022/01/23 17:22:46;;;;;;;;;;;6.30;99.90;;;;;;5094589;28;19916;-76
2022/01/23 17:25:12;;;;;;;;;;;6.30;99.90;;;;;;5076520;28;19926;-77
2022/01/23 17:27:37;;;;;;;;;;;6.40;99.90;;;;;;5089950;28;19916;-76
2022/01/23 17:30:03;;;;;;;;;;;6.40;99.90;;;;;;5094628;28;19916;-76
2022/01/23 17:32:29;;;;;;;;;;;6.30;99.90;;;;;;5071280;28;19932;-76
2022/01/23 17:34:54;;;;;;;;;;;6.30;99.90;;;;;;5093746;28;19927;-76
2022/01/23 17:37:20;;;;;;;;;;;6.30;99.90;;;;;;5081940;28;19947;-76
2022/01/23 17:39:45;;;;;;;;;;;6.30;99.90;;;;;;5076403;22;20019;-76
2022/01/23 17:42:12;;;;;;;;;;;6.30;99.90;;;;;;5070257;28;19924;-76
2022/01/23 17:44:42;;;;;;;;;;;6.30;99.90;;;;;;5069944;28;19959;-76
2022/01/23 17:49:57;;;;;;;;;;;6.20;99.90;;;;;;5070410;28;19962;-77
2022/01/23 17:52:23;;;;;;;;;;;6.10;99.90;;;;;;5066626;28;19916;-76
2022/01/23 17:54:49;;;;;;;;;;;6.20;99.90;;;;;;5070299;28;19916;-76
2022/01/23 17:57:15;;;;;;;;;;;6.10;99.90;;;;;;5068654;28;19916;-77
2022/01/23 17:59:41;;;;;;;;;;;6.30;99.90;;;;;;5067346;28;19927;-77
2022/01/23 18:02:07;;;;;;;;;;;6.30;99.90;;;;;;5063559;28;19916;-76
2022/01/23 18:04:33;;;;;;;;;;;6.30;99.90;;;;;;5059462;28;19960;-76